Time;durP1;ratioP1;P1;durP2;ratioP2;P2;SDS_P1;SDS_P2;PMS_P1;PMS_P2;Temp;Humidity;BMP_temperature;BMP_pressure;BME280_temperature;BME280_humidity;BME280_pressure;Samples;Min_cycle;Max_cycle;Signal;HPM_P1;HPM_P2
2023/05/31 00:02:14;;;;;;;3.90;1.95;;;15.00;71.30;;;14.91;44.67;97559.66;5024342;28;20030;-37
2023/05/31 00:04:40;;;;;;;8.65;2.30;;;15.00;71.40;;;14.88;45.12;97566.00;5023704;28;20451;-37
2023/05/31 00:07:06;;;;;;;3.20;1.70;;;15.00;71.70;;;14.89;44.82;97559.72;5027378;28;20469;-37
2023/05/31 00:09:32;;;;;;;4.47;2.00;;;15.00;71.50;;;14.84;44.69;97554.69;5025724;28;20040;-37
2023/05/31 00:11:58;;;;;;;2.63;1.50;;;15.00;71.20;;;14.78;45.36;97552.31;5025571;28;20029;-37
2023/05/31 00:14:24;;;;;;;6.03;1.70;;;15.00;71.50;;;14.79;45.34;97559.38;5024250;28;20018;-37
2023/05/31 00:16:49;;;;;;;6.30;1.63;;;14.90;72.00;;;14.76;45.25;97564.81;5023216;28;20033;-38
2023/05/31 00:19:15;;;;;;;2.45;1.60;;;14.90;71.90;;;14.71;44.68;97550.91;5023454;28;20038;-37
2023/05/31 00:21:45;;;;;;;5.95;1.50;;;14.90;71.50;;;14.70;45.00;97555.38;5022413;28;20473;-37
2023/05/31 00:24:11;;;;;;;3.25;1.60;;;14.90;71.70;;;14.66;44.41;97539.69;5024792;28;20025;-37
2023/05/31 00:26:37;;;;;;;5.80;1.73;;;14.90;70.80;;;14.74;44.79;97550.78;5023047;28;20025;-37
2023/05/31 00:29:02;;;;;;;2.97;1.45;;;14.90;71.60;;;14.71;45.07;97556.22;5027484;28;20091;-37
2023/05/31 00:31:28;;;;;;;3.92;1.73;;;14.90;71.60;;;14.63;44.91;97551.31;5024684;28;20430;-37
2023/05/31 00:33:55;;;;;;;2.97;1.50;;;14.80;71.60;;;14.63;44.77;97550.47;5023506;28;20041;-37
2023/05/31 00:36:21;;;;;;;3.13;1.38;;;14.80;71.50;;;14.62;44.57;97551.41;5028496;28;20117;-37
2023/05/31 00:38:47;;;;;;;6.30;1.77;;;14.80;71.20;;;14.62;44.96;97541.63;5021835;28;20026;-37
2023/05/31 00:41:13;;;;;;;5.93;1.90;;;14.80;71.60;;;14.60;44.79;97548.81;5027506;28;20028;-40
2023/05/31 00:43:38;;;;;;;4.25;1.88;;;14.80;71.50;;;14.57;44.78;97548.06;5020713;28;20033;-37
2023/05/31 00:46:05;;;;;;;4.03;1.65;;;14.70;71.20;;;14.60;43.99;97547.97;5024856;28;20026;-37
2023/05/31 00:48:30;;;;;;;7.00;1.80;;;14.70;70.60;;;14.65;44.39;97559.22;5025013;28;20549;-37
2023/05/31 00:50:57;;;;;;;5.43;1.90;;;14.80;70.50;;;14.61;44.29;97539.94;5025675;28;20088;-37
2023/05/31 00:53:22;;;;;;;4.70;1.55;;;14.80;70.60;;;14.61;44.62;97549.69;5029732;28;20029;-38
2023/05/31 00:55:49;;;;;;;2.85;1.40;;;14.80;71.00;;;14.47;44.70;97526.47;5021015;28;20303;-37
2023/05/31 00:58:16;;;;;;;3.15;1.50;;;14.80;71.30;;;14.55;44.29;97542.00;5026078;28;20039;-37
2023/05/31 01:00:42;;;;;;;3.78;1.60;;;14.70;70.90;;;14.52;44.61;97545.69;5014464;28;20486;-38
2023/05/31 01:03:09;;;;;;;3.50;1.73;;;14.70;71.10;;;14.54;44.46;97541.16;5024707;28;20036;-37
2023/05/31 01:05:35;;;;;;;3.55;2.00;;;14.70;70.90;;;14.51;44.67;97542.13;5017529;28;20022;-38
2023/05/31 01:08:02;;;;;;;3.30;1.60;;;14.70;71.30;;;14.52;44.21;97543.88;5018473;28;20039;-38
2023/05/31 01:10:29;;;;;;;3.28;1.70;;;14.70;70.80;;;14.52;44.47;97553.63;5037646;28;20580;-37
2023/05/31 01:13:20;;;;;;;3.90;1.80;;;14.70;70.60;;;14.53;44.01;97547.38;5025287;28;20033;-37
2023/05/31 01:16:09;;;;;;;3.58;1.50;;;14.70;70.30;;;14.48;44.19;97538.78;5022724;28;20506;-37
2023/05/31 01:18:54;;;;;;;2.70;1.38;;;14.70;70.60;;;14.43;44.89;97557.59;5024366;28;20037;-38
2023/05/31 01:21:27;;;;;;;4.32;1.80;;;14.60;71.30;;;14.45;44.21;97544.25;5019576;28;20477;-37
2023/05/31 01:24:04;;;;;;;5.32;1.90;;;14.60;70.50;;;14.44;43.98;97551.34;5018713;28;20369;-37
2023/05/31 01:26:37;;;;;;;5.22;2.00;;;14.60;70.60;;;14.44;44.62;97539.88;5024903;28;20025;-37
2023/05/31 01:29:12;;;;;;;3.75;1.80;;;14.60;71.10;;;14.39;44.50;97545.44;5023289;28;20041;-38
2023/05/31 01:31:40;;;;;;;8.73;1.70;;;14.50;71.10;;;14.37;44.92;97539.31;5022800;28;20065;-37
2023/05/31 01:34:07;;;;;;;2.63;1.42;;;14.50;71.50;;;14.36;44.32;97542.06;5020680;28;20532;-37
2023/05/31 01:36:32;;;;;;;2.20;1.50;;;14.50;70.90;;;14.33;45.32;97546.56;5024691;28;20121;-37
2023/05/31 01:39:00;;;;;;;4.05;1.60;;;14.50;71.50;;;14.30;44.44;97541.44;5020798;28;20034;-38
2023/05/31 01:41:28;;;;;;;5.18;1.85;;;14.50;71.10;;;14.32;44.39;97547.53;5025559;28;20444;-37
2023/05/31 01:43:54;;;;;;;3.45;1.80;;;14.50;70.70;;;14.31;44.69;97552.91;5021409;28;20117;-38
2023/05/31 01:46:21;;;;;;;3.50;1.70;;;14.50;71.10;;;14.34;44.63;97552.75;5022584;28;20025;-37
2023/05/31 01:48:47;;;;;;;3.63;1.35;;;14.50;71.10;;;14.28;45.04;97553.94;5021047;28;20482;-38
2023/05/31 01:51:15;;;;;;;5.35;1.55;;;14.50;71.70;;;14.25;45.00;97551.41;5023021;28;20112;-38
2023/05/31 01:53:42;;;;;;;2.95;1.65;;;14.40;71.80;;;14.30;44.72;97556.47;5022918;28;20556;-37
2023/05/31 01:56:08;;;;;;;3.45;1.48;;;14.40;71.30;;;14.23;44.83;97552.41;5022367;28;20041;-37
2023/05/31 01:58:37;;;;;;;3.13;1.40;;;14.40;71.40;;;14.25;44.40;97554.06;5024402;28;20037;-37
2023/05/31 02:01:02;;;;;;;3.70;1.83;;;14.40;71.30;;;14.22;45.08;97548.91;5022674;28;20593;-37
2023/05/31 02:03:28;;;;;;;4.18;1.77;;;14.40;71.90;;;14.09;44.56;97537.19;5023795;28;20489;-37
2023/05/31 02:05:59;;;;;;;4.07;1.50;;;14.40;71.40;;;14.14;45.14;97559.06;5022851;28;20061;-37
2023/05/31 02:08:26;;;;;;;5.28;1.60;;;14.30;72.00;;;14.13;44.91;97558.16;5022292;28;20427;-37
2023/05/31 02:10:52;;;;;;;3.65;1.70;;;14.30;71.60;;;14.10;45.15;97560.13;5021882;28;20038;-37
2023/05/31 02:13:19;;;;;;;3.67;1.63;;;14.30;72.00;;;14.13;44.92;97557.31;5022578;28;20465;-37
2023/05/31 02:15:45;;;;;;;4.63;1.65;;;14.30;71.80;;;14.10;44.95;97561.00;5023939;28;20076;-38
2023/05/31 02:18:12;;;;;;;5.20;1.63;;;14.30;71.70;;;14.07;45.25;97566.44;5023760;28;20414;-37
2023/05/31 02:20:38;;;;;;;5.35;1.88;;;14.20;72.10;;;14.06;45.29;97559.41;5024127;28;20034;-37
2023/05/31 02:23:04;;;;;;;3.53;1.60;;;14.20;72.20;;;14.04;45.24;97558.63;5026998;28;20560;-37
2023/05/31 02:25:30;;;;;;;2.42;1.52;;;14.20;72.00;;;14.00;45.56;97561.47;5026177;28;20040;-38
2023/05/31 02:27:57;;;;;;;4.28;1.52;;;14.20;72.30;;;13.89;45.82;97551.41;5024788;28;20437;-37
2023/05/31 02:30:26;;;;;;;3.38;1.40;;;14.20;72.70;;;13.90;46.03;97564.59;5026969;28;20029;-37
2023/05/31 02:32:53;;;;;;;5.57;1.42;;;14.10;73.00;;;13.81;46.34;97564.16;5018863;28;20057;-37
2023/05/31 02:35:19;;;;;;;2.63;1.20;;;14.00;73.50;;;13.66;46.52;97549.88;5014034;28;20135;-38
2023/05/31 02:37:46;;;;;;;2.67;1.50;;;14.00;73.80;;;13.66;46.92;97556.00;5023296;28;20033;-37
2023/05/31 02:40:13;;;;;;;7.25;1.42;;;13.90;74.30;;;13.63;46.93;97557.94;5027411;28;20082;-37
2023/05/31 02:42:41;;;;;;;2.97;1.80;;;13.80;74.40;;;13.59;47.37;97556.38;5024511;28;20126;-37
2023/05/31 02:45:08;;;;;;;6.07;1.73;;;13.80;75.00;;;13.43;47.28;97543.81;5027135;28;20033;-37
2023/05/31 02:47:38;;;;;;;3.40;1.60;;;13.70;74.80;;;13.50;47.14;97550.56;5023239;28;20032;-37
2023/05/31 02:50:09;;;;;;;5.95;1.80;;;13.70;74.60;;;13.45;47.78;97554.38;5027457;28;20035;-38
2023/05/31 02:52:38;;;;;;;3.15;1.30;;;13.70;75.30;;;13.42;47.91;97551.84;5026988;28;20028;-37
2023/05/31 02:55:05;;;;;;;6.20;1.52;;;13.60;75.60;;;13.35;48.11;97553.91;5026494;28;20501;-37
2023/05/31 02:57:31;;;;;;;2.33;1.35;;;13.60;76.00;;;13.30;48.54;97550.59;5026272;28;20118;-37
2023/05/31 03:00:11;;;;;;;5.05;1.60;;;13.50;76.40;;;13.25;48.85;97549.94;5025800;28;20277;-37
2023/05/31 03:02:40;;;;;;;2.50;1.40;;;13.50;76.90;;;13.20;49.07;97552.78;5023869;28;20018;-37
2023/05/31 03:05:08;;;;;;;4.88;1.50;;;13.40;77.20;;;13.15;49.23;97547.72;5025358;28;20044;-37
2023/05/31 03:07:35;;;;;;;2.75;1.63;;;13.30;77.30;;;13.12;49.41;97555.78;5023555;28;20022;-38
2023/05/31 03:10:04;;;;;;;3.40;1.40;;;13.30;77.60;;;13.07;49.72;97549.84;5025346;28;20117;-37
2023/05/31 03:12:33;;;;;;;3.70;1.40;;;13.30;78.00;;;13.05;49.54;97551.69;5026025;28;20032;-37
2023/05/31 03:14:58;;;;;;;2.33;1.65;;;13.30;77.90;;;13.02;49.84;97548.31;5023507;28;20549;-37
2023/05/31 03:17:24;;;;;;;3.03;1.60;;;13.20;78.40;;;12.98;50.58;97545.81;5025943;28;20043;-37
2023/05/31 03:19:50;;;;;;;2.05;1.40;;;13.20;79.10;;;12.93;50.78;97546.94;5021468;28;20046;-37
2023/05/31 03:22:16;;;;;;;3.35;1.60;;;13.10;79.30;;;12.87;51.28;97548.06;5026902;28;20481;-37
2023/05/31 03:24:42;;;;;;;2.50;1.42;;;13.10;80.00;;;12.83;51.31;97548.25;5024871;28;20405;-37
2023/05/31 03:27:07;;;;;;;2.67;1.38;;;13.00;79.80;;;12.78;51.43;97551.13;5025912;28;20037;-37
2023/05/31 03:29:41;;;;;;;4.07;1.55;;;13.00;80.00;;;12.73;51.98;97553.09;5024830;28;20432;-37
2023/05/31 03:32:07;;;;;;;2.67;1.60;;;12.90;80.70;;;12.65;52.62;97549.91;5024799;28;20028;-37
2023/05/31 03:34:32;;;;;;;4.70;1.70;;;12.90;81.40;;;12.63;53.34;97549.97;5028941;28;20480;-37
2023/05/31 03:36:59;;;;;;;2.72;1.30;;;12.80;82.20;;;12.58;54.94;97547.53;5022505;28;20033;-37
2023/05/31 03:39:24;;;;;;;2.25;1.45;;;12.80;83.50;;;12.55;55.10;97549.47;5023498;28;20111;-37
2023/05/31 03:41:50;;;;;;;2.15;1.20;;;12.70;83.40;;;12.47;55.29;97546.25;5025144;28;20547;-37
2023/05/31 03:44:16;;;;;;;3.08;1.40;;;12.70;83.30;;;12.44;56.51;97559.66;5023821;28;20025;-37
2023/05/31 03:46:41;;;;;;;3.78;1.48;;;12.70;84.10;;;12.39;57.46;97557.19;5023097;28;20037;-37
2023/05/31 03:49:07;;;;;;;2.47;1.35;;;12.60;84.80;;;12.37;56.70;97561.69;5024348;28;20051;-37
2023/05/31 03:51:33;;;;;;;4.80;1.50;;;12.60;84.10;;;12.42;53.37;97565.00;5020635;28;20280;-37
2023/05/31 03:53:59;;;;;;;2.65;1.42;;;12.60;81.30;;;12.40;54.10;97550.97;5026561;28;20512;-37
2023/05/31 03:56:25;;;;;;;3.72;1.55;;;12.60;81.70;;;12.45;55.00;97556.91;5027202;28;20036;-37
2023/05/31 03:58:50;;;;;;;2.63;1.45;;;12.60;82.70;;;12.48;55.29;97554.16;5021283;28;20110;-37
2023/05/31 04:01:17;;;;;;;3.88;1.65;;;12.70;82.80;;;12.48;56.34;97558.59;5026859;28;20056;-37
2023/05/31 04:03:43;;;;;;;3.10;1.65;;;12.70;83.70;;;12.47;57.52;97560.38;5020701;28;20394;-38
2023/05/31 04:06:10;;;;;;;3.58;1.52;;;12.70;84.60;;;12.45;57.17;97567.50;5026717;28;20441;-37
2023/05/31 04:08:36;;;;;;;3.42;1.33;;;12.70;84.50;;;12.47;57.11;97570.97;5026254;28;20120;-37
2023/05/31 04:11:02;;;;;;;3.47;1.60;;;12.70;85.10;;;12.49;57.73;97565.56;5024438;28;20038;-37
2023/05/31 04:13:27;;;;;;;3.50;1.60;;;12.70;84.70;;;12.54;57.94;97571.53;5023963;28;20036;-37
2023/05/31 04:15:53;;;;;;;2.72;1.30;;;12.70;84.90;;;12.56;58.17;97562.63;5026095;28;20033;-37
2023/05/31 04:18:19;;;;;;;5.95;1.70;;;12.70;85.00;;;12.60;58.23;97569.50;5026439;28;20085;-37
2023/05/31 04:20:45;;;;;;;5.47;1.80;;;12.80;85.10;;;12.62;58.63;97576.53;5023253;28;20036;-37
2023/05/31 04:23:10;;;;;;;3.08;1.30;;;12.80;85.20;;;12.64;58.50;97572.03;5026909;28;20057;-37
2023/05/31 04:25:36;;;;;;;3.53;1.50;;;12.90;85.40;;;12.68;58.16;97570.97;5026681;28;20032;-37
2023/05/31 04:28:05;;;;;;;4.05;1.48;;;12.90;85.00;;;12.68;58.21;97581.53;5025704;28;20073;-37
2023/05/31 04:30:31;;;;;;;2.45;1.60;;;12.90;84.90;;;12.67;59.53;97579.81;5026046;28;20029;-37
2023/05/31 04:32:57;;;;;;;3.83;1.70;;;12.90;85.70;;;12.65;60.34;97586.97;5024088;28;20029;-37
2023/05/31 04:35:23;;;;;;;4.88;1.52;;;12.90;86.40;;;12.69;59.42;97573.53;5021943;28;20425;-37
2023/05/31 04:37:52;;;;;;;4.05;1.63;;;12.90;85.90;;;12.70;60.36;97580.53;5023275;28;20055;-37
2023/05/31 04:40:20;;;;;;;6.20;1.75;;;12.90;86.40;;;12.71;61.14;97582.28;5025820;28;20590;-37
2023/05/31 04:42:46;;;;;;;3.72;1.80;;;12.90;86.90;;;12.75;62.36;97583.84;5025431;28;20083;-37
2023/05/31 04:45:12;;;;;;;3.53;1.65;;;13.00;87.60;;;12.75;63.43;97578.56;5025162;28;20047;-37
2023/05/31 04:47:38;;;;;;;3.88;1.70;;;13.00;88.30;;;12.74;64.66;97584.81;5022829;28;20029;-37
2023/05/31 04:50:04;;;;;;;4.65;2.00;;;13.00;88.90;;;12.76;66.92;97580.28;5027598;28;20608;-37
2023/05/31 04:52:31;;;;;;;5.15;1.80;;;13.00;89.90;;;12.76;68.12;97577.66;5022097;28;20051;-38
2023/05/31 04:54:59;;;;;;;3.08;1.40;;;13.00;90.30;;;12.77;69.08;97576.69;5025261;28;20057;-37
2023/05/31 04:57:29;;;;;;;3.00;1.52;;;13.00;90.60;;;12.77;69.06;97582.00;5024038;28;20041;-37
2023/05/31 04:59:58;;;;;;;3.65;1.83;;;13.00;90.50;;;12.80;69.67;97586.31;5024337;28;20038;-37
2023/05/31 05:02:25;;;;;;;4.57;1.58;;;13.00;90.70;;;12.87;67.07;97586.94;5025015;28;20029;-37
2023/05/31 05:04:51;;;;;;;3.17;1.45;;;13.10;90.10;;;12.95;65.91;97588.28;5020889;28;20112;-37
2023/05/31 05:07:17;;;;;;;5.03;1.67;;;13.10;89.80;;;13.05;62.16;97588.75;5024394;28;20040;-37
2023/05/31 05:09:43;;;;;;;3.00;1.85;;;13.30;87.70;;;13.07;62.77;97581.59;5020083;28;20029;-37
2023/05/31 05:12:10;;;;;;;3.70;1.70;;;13.30;87.80;;;13.23;61.54;97600.31;5024234;28;20033;-37
2023/05/31 05:14:36;;;;;;;2.15;1.60;;;13.40;87.40;;;13.36;61.29;97592.72;5023960;28;20091;-37
2023/05/31 05:17:02;;;;;;;3.72;1.42;;;13.60;87.10;;;13.47;60.29;97592.22;5024973;28;20030;-37
2023/05/31 05:19:27;;;;;;;3.78;1.70;;;13.70;86.60;;;13.61;59.66;97595.13;5021669;28;20061;-37
2023/05/31 05:21:54;;;;;;;3.58;1.55;;;13.80;86.10;;;13.74;59.30;97588.31;5021021;28;20025;-37
2023/05/31 05:24:20;;;;;;;5.00;1.90;;;14.00;86.00;;;13.99;54.38;97604.84;5022605;28;20032;-37
2023/05/31 05:26:46;;;;;;;3.83;1.80;;;14.10;83.50;;;14.32;52.06;97602.38;5015862;28;20029;-37
2023/05/31 05:29:11;;;;;;;2.40;1.50;;;14.40;80.80;;;14.63;50.65;97600.91;5020215;28;20405;-38
2023/05/31 05:31:37;;;;;;;2.10;1.38;;;14.60;79.40;;;14.83;50.92;97599.88;5022879;28;20033;-38
2023/05/31 05:34:03;;;;;;;3.58;1.88;;;14.80;79.60;;;14.90;49.88;97606.59;5024541;28;20048;-37
2023/05/31 05:36:28;;;;;;;2.67;1.52;;;14.90;78.80;;;14.97;49.96;97596.53;5026401;28;20045;-37
2023/05/31 05:38:58;;;;;;;3.03;1.70;;;15.00;78.30;;;15.01;49.74;97604.25;5020867;28;20406;-37
2023/05/31 05:41:25;;;;;;;4.03;1.60;;;15.20;78.20;;;15.07;48.53;97601.28;5021201;28;20522;-38
2023/05/31 05:43:51;;;;;;;4.63;1.67;;;15.20;76.70;;;15.14;48.72;97601.81;5021541;28;20018;-37
2023/05/31 05:46:16;;;;;;;4.05;1.58;;;15.30;76.70;;;15.25;48.65;97604.78;5025843;28;20036;-38
2023/05/31 05:48:42;;;;;;;5.40;1.75;;;15.40;76.80;;;15.38;48.52;97605.00;5019684;28;20444;-38
2023/05/31 05:51:09;;;;;;;4.82;1.70;;;15.50;76.60;;;15.50;48.35;97602.63;5015810;28;20916;-37
2023/05/31 05:53:35;;;;;;;3.10;1.42;;;15.60;76.40;;;15.59;48.01;97602.13;5021175;28;20025;-37
2023/05/31 05:56:00;;;;;;;6.45;2.00;;;15.70;75.90;;;15.72;47.13;97605.84;5019380;28;20166;-37
2023/05/31 05:58:26;;;;;;;3.83;1.48;;;15.90;74.70;;;15.87;47.41;97608.63;5024439;28;20037;-38
2023/05/31 06:00:52;;;;;;;5.15;1.73;;;16.00;75.40;;;15.94;48.73;97605.53;5019496;28;20030;-37
2023/05/31 06:03:19;;;;;;;3.40;1.73;;;16.00;76.70;;;16.02;49.96;97608.66;5024079;28;20387;-37
2023/05/31 06:05:44;;;;;;;6.55;1.85;;;16.10;78.20;;;16.05;50.55;97598.78;5020092;28;20388;-37
2023/05/31 06:08:10;;;;;;;5.18;1.70;;;16.20;79.10;;;16.16;49.80;97604.34;5023646;28;20492;-37
2023/05/31 06:10:37;;;;;;;5.32;1.95;;;16.20;78.40;;;16.25;49.81;97617.13;5022287;28;20039;-38
2023/05/31 06:13:03;;;;;;;3.05;1.60;;;16.30;78.40;;;16.34;49.68;97610.44;5022312;28;20033;-37
2023/05/31 06:15:29;;;;;;;6.60;1.60;;;16.40;78.50;;;16.45;48.59;97615.13;5023765;28;20625;-38
2023/05/31 06:17:54;;;;;;;3.50;1.73;;;16.50;77.10;;;16.55;48.22;97609.19;5020476;28;20139;-38
2023/05/31 06:20:21;;;;;;;3.55;1.85;;;16.60;76.90;;;16.65;47.62;97612.16;5022962;28;20110;-37
2023/05/31 06:22:48;;;;;;;5.38;1.90;;;16.70;76.50;;;16.74;48.45;97611.66;5020786;28;20485;-37
2023/05/31 06:25:13;;;;;;;3.97;1.70;;;16.70;76.90;;;16.89;48.93;97606.41;5023918;28;20437;-37
2023/05/31 06:27:40;;;;;;;7.10;1.80;;;16.90;77.20;;;16.99;46.95;97612.88;5023113;28;20029;-38
2023/05/31 06:30:06;;;;;;;3.55;1.67;;;17.00;77.10;;;17.07;46.23;97607.97;5023160;28;20029;-37
2023/05/31 06:32:32;;;;;;;2.65;1.40;;;17.10;74.30;;;17.23;46.75;97605.25;5020055;28;20033;-37
2023/05/31 06:34:58;;;;;;;3.78;1.80;;;17.20;74.70;;;17.39;46.38;97615.84;5023195;28;20931;-37
2023/05/31 06:37:23;;;;;;;4.72;2.00;;;17.30;74.70;;;17.55;44.97;97605.94;5019577;28;20034;-38
2023/05/31 06:39:50;;;;;;;4.32;1.90;;;17.50;72.90;;;17.68;45.84;97605.19;5023059;28;20477;-37
2023/05/31 06:42:17;;;;;;;4.55;2.10;;;17.60;73.80;;;17.83;43.03;97609.53;5019510;28;20088;-38
2023/05/31 06:44:43;;;;;;;4.10;1.80;;;17.70;70.40;;;17.97;43.92;97611.38;5023373;28;20044;-38
2023/05/31 06:47:09;;;;;;;5.10;2.03;;;17.90;71.30;;;18.09;44.33;97605.25;5021759;28;20029;-38
2023/05/31 06:49:35;;;;;;;4.22;1.70;;;18.00;71.40;;;18.26;43.46;97603.28;5022289;28;20277;-38
2023/05/31 06:52:01;;;;;;;2.35;1.63;;;18.10;71.30;;;18.38;43.64;97586.47;5020554;28;20029;-38
2023/05/31 06:54:27;;;;;;;5.18;1.80;;;18.30;71.40;;;18.46;43.68;97585.97;5023689;28;20254;-38
2023/05/31 06:56:54;;;;;;;8.07;2.08;;;18.40;71.80;;;18.39;41.29;97588.19;5021820;28;20156;-38
2023/05/31 06:59:20;;;;;;;9.90;2.17;;;18.50;68.20;;;18.42;41.82;97605.81;5023234;28;20064;-38
2023/05/31 07:01:46;;;;;;;5.55;1.65;;;18.50;68.00;;;18.36;41.52;97580.38;5020551;28;20473;-38
2023/05/31 07:04:11;;;;;;;3.28;1.45;;;18.50;68.20;;;18.47;42.18;97590.38;5023560;28;20044;-39
2023/05/31 07:06:37;;;;;;;4.25;1.85;;;18.50;68.90;;;18.63;41.98;97596.41;5026388;28;20033;-38
2023/05/31 07:09:06;;;;;;;4.70;2.20;;;18.60;69.00;;;18.66;41.82;97604.22;5026997;28;20029;-38
2023/05/31 07:11:31;;;;;;;6.13;2.05;;;18.70;68.50;;;18.70;41.83;97591.50;5025984;28;20037;-38
2023/05/31 07:14:02;;;;;;;5.35;2.15;;;18.70;68.40;;;18.89;43.98;97593.81;5022079;28;20032;-38
2023/05/31 07:16:28;;;;;;;3.10;1.90;;;18.90;69.70;;;18.95;41.48;97580.06;5025187;28;20025;-38
2023/05/31 07:18:55;;;;;;;4.93;1.77;;;19.00;68.70;;;19.19;44.31;97587.34;5025331;28;20061;-37
2023/05/31 07:21:21;;;;;;;4.75;1.80;;;19.10;70.30;;;19.32;41.48;97590.03;5025498;28;20486;-38
2023/05/31 07:23:46;;;;;;;4.05;1.90;;;19.20;68.60;;;19.44;41.22;97591.84;5023873;28;20033;-38
2023/05/31 07:26:12;;;;;;;3.80;1.75;;;19.30;68.50;;;19.49;41.08;97587.03;5025642;28;20036;-38
2023/05/31 07:28:38;;;;;;;3.70;1.88;;;19.40;68.60;;;19.52;41.64;97581.44;5026559;28;20359;-38
2023/05/31 07:31:03;;;;;;;4.43;2.00;;;19.50;67.70;;;19.56;41.13;97582.97;5022503;28;20042;-38
2023/05/31 07:33:30;;;;;;;4.70;2.40;;;19.50;67.20;;;19.64;42.04;97583.25;5026089;28;20033;-38
2023/05/31 07:35:59;;;;;;;4.90;1.92;;;19.60;67.70;;;19.72;44.77;97588.09;5019810;28;20497;-38
2023/05/31 07:38:25;;;;;;;5.18;2.20;;;19.70;71.50;;;19.68;39.89;97572.34;5027731;28;20033;-38
2023/05/31 07:40:51;;;;;;;5.45;2.30;;;19.70;67.20;;;19.73;39.88;97573.75;5023468;28;20070;-38
2023/05/31 07:43:21;;;;;;;3.35;1.77;;;19.70;66.10;;;19.82;41.31;97572.25;5024389;28;20068;-38
2023/05/31 07:45:50;;;;;;;7.65;2.40;;;19.70;68.00;;;19.91;43.56;97573.41;5023047;28;20026;-38
2023/05/31 07:48:17;;;;;;;5.20;2.20;;;19.90;72.00;;;20.03;40.63;97569.84;5026923;28;20026;-38
2023/05/31 07:50:43;;;;;;;7.50;2.13;;;19.90;67.20;;;20.01;39.56;97575.31;5015999;28;20112;-38
2023/05/31 07:53:09;;;;;;;4.80;2.20;;;20.00;65.90;;;20.03;39.79;97578.72;5019530;28;20116;-40
2023/05/31 07:55:35;;;;;;;4.35;2.20;;;20.00;65.10;;;20.07;39.30;97575.84;5024821;28;20021;-39
2023/05/31 07:58:01;;;;;;;6.15;2.00;;;20.10;65.10;;;20.10;38.97;97560.41;5027063;28;20064;-39
2023/05/31 08:00:27;;;;;;;4.15;1.95;;;20.10;64.60;;;20.28;40.43;97568.91;5024341;28;20040;-38
2023/05/31 08:02:53;;;;;;;5.65;2.10;;;20.20;66.70;;;20.33;39.63;97566.75;5026912;28;20021;-39
2023/05/31 08:05:19;;;;;;;4.85;1.95;;;20.30;64.60;;;20.40;39.29;97562.66;5023612;28;20034;-39
2023/05/31 08:07:44;;;;;;;5.28;2.15;;;20.40;65.80;;;20.49;38.59;97565.59;5025367;28;20075;-38
2023/05/31 08:10:11;;;;;;;3.25;2.13;;;20.50;63.90;;;20.50;39.94;97562.81;5022335;28;20042;-39
2023/05/31 08:12:37;;;;;;;3.97;2.08;;;20.50;65.60;;;20.54;39.21;97571.47;5024139;28;20036;-39
2023/05/31 08:15:03;;;;;;;5.03;2.03;;;20.50;64.30;;;20.63;39.07;97562.78;5022389;28;20477;-38
2023/05/31 08:17:29;;;;;;;8.00;2.25;;;20.60;64.60;;;20.74;40.32;97549.41;5023017;28;20485;-39
2023/05/31 08:19:55;;;;;;;4.72;1.92;;;20.70;66.70;;;20.88;38.24;97556.41;5023283;28;21326;-38
2023/05/31 08:22:20;;;;;;;6.35;1.90;;;20.80;64.60;;;20.94;39.75;97558.63;5022897;28;20475;-39
2023/05/31 08:24:46;;;;;;;6.38;2.10;;;20.80;66.20;;;21.10;37.66;97555.63;5023300;28;20055;-39
2023/05/31 08:27:12;;;;;;;2.35;1.85;;;20.90;62.80;;;21.13;38.37;97559.88;5025968;28;20049;-38
2023/05/31 08:29:38;;;;;;;8.73;2.28;;;21.00;63.90;;;21.18;39.26;97565.75;5024685;28;20121;-38
2023/05/31 08:32:04;;;;;;;6.30;2.40;;;21.10;65.80;;;21.06;36.83;97562.19;5022011;28;20383;-38
2023/05/31 08:34:30;;;;;;;4.75;2.22;;;21.10;62.30;;;20.97;37.62;97558.38;5022788;28;20040;-38
2023/05/31 08:36:55;;;;;;;4.40;2.15;;;21.00;62.00;;;20.90;39.30;97561.66;5021350;28;20580;-38
2023/05/31 08:39:21;;;;;;;3.75;2.22;;;20.90;63.90;;;20.89;38.85;97559.94;5023009;28;20123;-39
2023/05/31 08:42:01;;;;;;;7.32;2.28;;;20.90;63.60;;;20.91;39.88;97558.84;5023520;28;20025;-38
2023/05/31 08:44:29;;;;;;;4.68;2.15;;;20.90;64.60;;;21.00;39.14;97554.63;5021793;28;21158;-39
2023/05/31 08:46:59;;;;;;;7.80;2.50;;;21.00;65.40;;;21.06;38.65;97550.59;5022971;28;20041;-38
2023/05/31 08:49:25;;;;;;;7.10;1.80;;;21.00;63.80;;;21.17;39.84;97551.50;5024193;28;20060;-38
2023/05/31 08:51:53;;;;;;;4.80;2.08;;;21.10;65.80;;;21.36;39.49;97544.69;5016894;28;20026;-38
2023/05/31 08:54:19;;;;;;;3.25;2.08;;;21.20;66.10;;;21.44;38.06;97552.97;5040698;28;20029;-38
2023/05/31 08:56:45;;;;;;;4.65;2.00;;;21.40;63.90;;;21.44;38.78;97544.91;5021328;28;20032;-39
2023/05/31 08:59:12;;;;;;;4.25;2.28;;;21.40;64.70;;;21.45;37.90;97538.63;5027194;28;20041;-38
2023/05/31 09:01:38;;;;;;;3.50;1.88;;;21.40;62.50;;;21.53;38.37;97538.00;5020182;28;20060;-38
2023/05/31 09:04:08;;;;;;;7.45;2.25;;;21.50;64.00;;;21.52;37.53;97542.53;5020938;28;20060;-38
2023/05/31 09:06:34;;;;;;;4.18;1.92;;;21.50;62.50;;;21.53;37.80;97543.38;5020748;28;20036;-38
2023/05/31 09:09:00;;;;;;;7.78;2.25;;;21.50;62.80;;;21.57;37.98;97531.44;5021313;28;20184;-38
2023/05/31 09:11:27;;;;;;;5.90;2.03;;;21.50;63.80;;;21.68;37.76;97549.38;5023812;28;20529;-38
2023/05/31 09:13:53;;;;;;;4.32;2.40;;;21.60;62.90;;;21.76;39.21;97548.75;5023090;28;20104;-38
2023/05/31 09:16:25;;;;;;;6.22;2.42;;;21.70;64.40;;;21.80;37.42;97548.34;5026820;28;20036;-39
2023/05/31 09:19:02;;;;;;;3.15;1.90;;;21.70;62.20;;;21.86;37.22;97542.50;5023515;28;20503;-39
2023/05/31 09:21:28;;;;;;;6.60;2.40;;;21.80;62.70;;;21.90;37.26;97543.97;5023071;28;20040;-38
2023/05/31 09:23:57;;;;;;;5.45;2.10;;;21.90;62.30;;;21.97;36.73;97541.66;5022438;28;21104;-39
2023/05/31 09:26:23;;;;;;;3.95;2.15;;;21.90;61.40;;;22.08;37.54;97557.72;5022019;28;20081;-38
2023/05/31 09:28:55;;;;;;;8.90;2.20;;;22.00;63.40;;;22.15;36.57;97558.09;5022646;28;20024;-40
2023/05/31 09:31:21;;;;;;;4.22;2.40;;;22.10;60.80;;;22.09;35.02;97550.50;5021400;28;20028;-38
2023/05/31 09:33:49;;;;;;;5.15;2.28;;;22.10;59.30;;;22.01;35.63;97536.88;5023225;28;20439;-38
2023/05/31 09:36:25;;;;;;;3.78;2.47;;;22.00;59.40;;;22.00;35.71;97548.59;5021703;28;20047;-38
2023/05/31 09:39:07;;;;;;;5.97;2.80;;;22.00;59.60;;;21.91;35.19;97534.94;5021615;28;20034;-39
2023/05/31 09:41:33;;;;;;;3.92;2.00;;;21.90;58.60;;;21.95;35.65;97534.66;5023807;28;21135;-39
2023/05/31 09:44:00;;;;;;;6.43;1.98;;;22.00;60.10;;;21.99;34.96;97526.25;5021365;28;20024;-38
2023/05/31 09:46:27;;;;;;;3.67;2.20;;;22.00;58.80;;;22.10;34.29;97536.97;5023397;28;20386;-38
2023/05/31 09:49:06;;;;;;;4.93;2.05;;;22.10;58.10;;;22.24;36.28;97529.63;5020014;28;20026;-39
2023/05/31 09:51:33;;;;;;;6.35;2.53;;;22.20;60.60;;;22.32;34.70;97537.91;5023477;28;20037;-38
2023/05/31 09:54:07;;;;;;;5.82;2.10;;;22.30;59.10;;;22.41;34.43;97536.31;5019128;28;20033;-38
2023/05/31 09:56:37;;;;;;;11.70;2.33;;;22.40;57.90;;;22.36;36.15;97538.50;5021646;28;20037;-39
2023/05/31 09:59:04;;;;;;;4.45;2.15;;;22.40;58.60;;;22.38;34.31;97531.19;5022425;28;20033;-38
2023/05/31 10:01:33;;;;;;;3.28;2.10;;;22.40;57.70;;;22.43;35.39;97537.91;5025965;28;20017;-39
2023/05/31 10:04:03;;;;;;;3.20;2.17;;;22.40;59.20;;;22.33;33.92;97518.16;5019176;28;20033;-39
2023/05/31 10:06:31;;;;;;;6.65;2.35;;;22.40;57.70;;;22.33;35.53;97530.72;5023534;28;20565;-39
2023/05/31 10:08:56;;;;;;;6.93;2.20;;;22.40;59.20;;;22.38;34.67;97525.81;5020801;28;20107;-39
2023/05/31 10:11:26;;;;;;;4.55;2.30;;;22.30;58.50;;;22.44;35.05;97533.38;5021893;28;20489;-40
2023/05/31 10:13:59;;;;;;;4.07;2.15;;;22.40;58.80;;;22.53;35.95;97521.00;5014147;28;20116;-39
2023/05/31 10:16:26;;;;;;;7.07;2.22;;;22.50;58.60;;;22.50;34.25;97514.03;5020994;28;20036;-39
2023/05/31 10:18:54;;;;;;;3.20;1.85;;;22.60;57.90;;;22.67;33.65;97524.22;5023908;28;20037;-39
2023/05/31 10:21:25;;;;;;;5.07;2.20;;;22.60;57.40;;;22.74;33.21;97521.00;5020614;28;20067;-38